sensor_id;sensor_type;location;lat;lon;timestamp;temperature;humidity
40434;DHT22;26146;51.114;5.654;2022-12-11T00:00:28;3.40;99.90
40434;DHT22;26146;51.114;5.654;2022-12-11T00:04:30;3.20;99.90
40434;DHT22;26146;51.114;5.654;2022-12-11T00:08:31;3.30;99.90
40434;DHT22;26146;51.114;5.654;2022-12-11T00:12:32;3.30;99.90
40434;DHT22;26146;51.114;5.654;2022-12-11T00:16:33;3.30;99.90
40434;DHT22;26146;51.114;5.654;2022-12-11T00:20:33;3.40;99.90
40434;DHT22;26146;51.114;5.654;2022-12-11T00:24:34;3.40;99.90
40434;DHT22;26146;51.114;5.654;2022-12-11T00:28:35;3.40;99.90
40434;DHT22;26146;51.114;5.654;2022-12-11T00:32:39;3.30;99.90
40434;DHT22;26146;51.114;5.654;2022-12-11T00:36:40;3.40;99.90
40434;DHT22;26146;51.114;5.654;2022-12-11T00:40:41;3.50;99.90
40434;DHT22;26146;51.114;5.654;2022-12-11T00:44:42;3.40;99.90
40434;DHT22;26146;51.114;5.654;2022-12-11T00:48:43;3.40;99.90
40434;DHT22;26146;51.114;5.654;2022-12-11T00:52:45;3.40;99.90
40434;DHT22;26146;51.114;5.654;2022-12-11T00:56:46;3.50;99.90
40434;DHT22;26146;51.114;5.654;2022-12-11T01:00:47;3.50;99.90
40434;DHT22;26146;51.114;5.654;2022-12-11T01:04:49;3.40;99.90
40434;DHT22;26146;51.114;5.654;2022-12-11T01:08:50;3.40;99.90
40434;DHT22;26146;51.114;5.654;2022-12-11T01:13:12;3.40;99.90
40434;DHT22;26146;51.114;5.654;2022-12-11T01:17:13;3.40;99.90
40434;DHT22;26146;51.114;5.654;2022-12-11T01:21:14;3.50;99.90
40434;DHT22;26146;51.114;5.654;2022-12-11T01:25:15;3.50;99.90
40434;DHT22;26146;51.114;5.654;2022-12-11T01:29:16;3.50;99.90
40434;DHT22;26146;51.114;5.654;2022-12-11T01:33:16;3.50;99.90
40434;DHT22;26146;51.114;5.654;2022-12-11T01:37:17;3.60;99.90
40434;DHT22;26146;51.114;5.654;2022-12-11T01:41:19;3.60;99.90
40434;DHT22;26146;51.114;5.654;2022-12-11T01:49:24;3.60;99.90
40434;DHT22;26146;51.114;5.654;2022-12-11T01:53:33;3.60;99.90
40434;DHT22;26146;51.114;5.654;2022-12-11T01:57:40;3.50;99.90
40434;DHT22;26146;51.114;5.654;2022-12-11T02:01:50;3.50;99.90
40434;DHT22;26146;51.114;5.654;2022-12-11T02:05:53;3.60;99.90
40434;DHT22;26146;51.114;5.654;2022-12-11T02:09:54;3.50;99.90
40434;DHT22;26146;51.114;5.654;2022-12-11T02:19:02;3.60;99.90
40434;DHT22;26146;51.114;5.654;2022-12-11T02:27:40;3.60;99.90
40434;DHT22;26146;51.114;5.654;2022-12-11T02:32:02;3.60;99.90
40434;DHT22;26146;51.114;5.654;2022-12-11T02:36:06;3.60;99.90
40434;DHT22;26146;51.114;5.654;2022-12-11T02:40:10;3.70;99.90
40434;DHT22;26146;51.114;5.654;2022-12-11T02:44:14;3.70;99.90
40434;DHT22;26146;51.114;5.654;2022-12-11T02:48:18;3.70;99.90
40434;DHT22;26146;51.114;5.654;2022-12-11T02:52:22;3.70;99.90
40434;DHT22;26146;51.114;5.654;2022-12-11T02:56:36;3.70;99.90
40434;DHT22;26146;51.114;5.654;2022-12-11T03:00:38;3.70;99.90
40434;DHT22;26146;51.114;5.654;2022-12-11T03:04:40;3.60;99.90
40434;DHT22;26146;51.114;5.654;2022-12-11T03:08:41;3.60;99.90
40434;DHT22;26146;51.114;5.654;2022-12-11T03:12:46;3.60;99.90
40434;DHT22;26146;51.114;5.654;2022-12-11T03:25:22;3.70;99.90
40434;DHT22;26146;51.114;5.654;2022-12-11T03:29:30;3.70;99.90
40434;DHT22;26146;51.114;5.654;2022-12-11T03:33:40;3.70;99.90
40434;DHT22;26146;51.114;5.654;2022-12-11T03:37:43;3.60;99.90
40434;DHT22;26146;51.114;5.654;2022-12-11T03:41:45;3.70;99.90
40434;DHT22;26146;51.114;5.654;2022-12-11T03:45:47;3.60;99.90
40434;DHT22;26146;51.114;5.654;2022-12-11T03:49:51;3.70;99.90
40434;DHT22;26146;51.114;5.654;2022-12-11T03:53:54;3.60;99.90
40434;DHT22;26146;51.114;5.654;2022-12-11T03:57:55;3.60;99.90
40434;DHT22;26146;51.114;5.654;2022-12-11T04:01:56;3.60;99.90
40434;DHT22;26146;51.114;5.654;2022-12-11T04:05:57;3.70;99.90
40434;DHT22;26146;51.114;5.654;2022-12-11T04:09:59;3.60;99.90
40434;DHT22;26146;51.114;5.654;2022-12-11T04:14:05;3.60;99.90
40434;DHT22;26146;51.114;5.654;2022-12-11T04:18:25;3.70;99.90
40434;DHT22;26146;51.114;5.654;2022-12-11T04:22:44;3.50;99.90
40434;DHT22;26146;51.114;5.654;2022-12-11T04:27:06;3.50;99.90
40434;DHT22;26146;51.114;5.654;2022-12-11T04:31:14;3.60;99.90
40434;DHT22;26146;51.114;5.654;2022-12-11T04:35:16;3.70;99.90
40434;DHT22;26146;51.114;5.654;2022-12-11T04:39:17;3.70;99.90
40434;DHT22;26146;51.114;5.654;2022-12-11T04:43:18;3.60;99.90
40434;DHT22;26146;51.114;5.654;2022-12-11T04:47:19;3.60;99.90
40434;DHT22;26146;51.114;5.654;2022-12-11T04:51:20;3.50;99.90
40434;DHT22;26146;51.114;5.654;2022-12-11T04:55:21;3.60;99.90
40434;DHT22;26146;51.114;5.654;2022-12-11T04:59:22;3.60;99.90
40434;DHT22;26146;51.114;5.654;2022-12-11T05:03:26;3.50;99.90
40434;DHT22;26146;51.114;5.654;2022-12-11T05:07:27;3.50;99.90
40434;DHT22;26146;51.114;5.654;2022-12-11T05:11:28;3.60;99.90
40434;DHT22;26146;51.114;5.654;2022-12-11T05:15:29;3.60;99.90
40434;DHT22;26146;51.114;5.654;2022-12-11T05:19:30;3.50;99.90
40434;DHT22;26146;51.114;5.654;2022-12-11T05:23:31;3.50;99.90
40434;DHT22;26146;51.114;5.654;2022-12-11T05:27:32;3.60;99.90
40434;DHT22;26146;51.114;5.654;2022-12-11T05:31:33;3.60;99.90
40434;DHT22;26146;51.114;5.654;2022-12-11T05:35:34;3.70;99.90
40434;DHT22;26146;51.114;5.654;2022-12-11T05:39:35;3.60;99.90
40434;DHT22;26146;51.114;5.654;2022-12-11T05:43:36;3.60;99.90
40434;DHT22;26146;51.114;5.654;2022-12-11T05:47:38;3.60;99.90
40434;DHT22;26146;51.114;5.654;2022-12-11T05:51:39;3.70;99.90
40434;DHT22;26146;51.114;5.654;2022-12-11T05:55:41;3.60;99.90
40434;DHT22;26146;51.114;5.654;2022-12-11T05:59:42;3.60;99.90
40434;DHT22;26146;51.114;5.654;2022-12-11T06:03:43;3.50;99.90
40434;DHT22;26146;51.114;5.654;2022-12-11T06:07:44;3.60;99.90
40434;DHT22;26146;51.114;5.654;2022-12-11T06:11:45;3.50;99.90
40434;DHT22;26146;51.114;5.654;2022-12-11T06:15:46;3.60;99.90
40434;DHT22;26146;51.114;5.654;2022-12-11T06:19:47;3.60;99.90
40434;DHT22;26146;51.114;5.654;2022-12-11T06:23:49;3.60;99.90
40434;DHT22;26146;51.114;5.654;2022-12-11T06:27:51;3.60;99.90
40434;DHT22;26146;51.114;5.654;2022-12-11T06:31:52;3.50;99.90
40434;DHT22;26146;51.114;5.654;2022-12-11T06:35:53;3.60;99.90
40434;DHT22;26146;51.114;5.654;2022-12-11T06:39:54;3.60;99.90
40434;DHT22;26146;51.114;5.654;2022-12-11T06:43:55;3.50;99.90
40434;DHT22;26146;51.114;5.654;2022-12-11T06:47:56;3.50;99.90
40434;DHT22;26146;51.114;5.654;2022-12-11T06:51:57;3.60;99.90
40434;DHT22;26146;51.114;5.654;2022-12-11T06:56:07;3.60;99.90
40434;DHT22;26146;51.114;5.654;2022-12-11T07:00:08;3.50;99.90
40434;DHT22;26146;51.114;5.654;2022-12-11T07:04:10;3.50;99.90
40434;DHT22;26146;51.114;5.654;2022-12-11T07:08:10;3.60;99.90
40434;DHT22;26146;51.114;5.654;2022-12-11T07:12:11;3.60;99.90
40434;DHT22;26146;51.114;5.654;2022-12-11T07:16:14;3.50;99.90
40434;DHT22;26146;51.114;5.654;2022-12-11T07:20:16;3.50;99.90
40434;DHT22;26146;51.114;5.654;2022-12-11T07:24:17;3.50;99.90
40434;DHT22;26146;51.114;5.654;2022-12-11T07:28:18;3.40;99.90
40434;DHT22;26146;51.114;5.654;2022-12-11T07:32:19;3.40;99.90
40434;DHT22;26146;51.114;5.654;2022-12-11T07:36:23;3.60;99.90
40434;DHT22;26146;51.114;5.654;2022-12-11T07:40:24;3.50;99.90
40434;DHT22;26146;51.114;5.654;2022-12-11T07:44:25;3.50;99.90
40434;DHT22;26146;51.114;5.654;2022-12-11T07:48:26;3.50;99.90
40434;DHT22;26146;51.114;5.654;2022-12-11T07:52:27;3.60;99.90
40434;DHT22;26146;51.114;5.654;2022-12-11T07:56:29;3.50;99.90
40434;DHT22;26146;51.114;5.654;2022-12-11T08:00:30;3.50;99.90
40434;DHT22;26146;51.114;5.654;2022-12-11T08:04:31;3.60;99.90
40434;DHT22;26146;51.114;5.654;2022-12-11T08:08:32;3.70;99.90
40434;DHT22;26146;51.114;5.654;2022-12-11T08:12:33;3.60;99.90
40434;DHT22;26146;51.114;5.654;2022-12-11T08:16:34;3.60;99.90
40434;DHT22;26146;51.114;5.654;2022-12-11T08:20:37;3.70;99.90
40434;DHT22;26146;51.114;5.654;2022-12-11T08:24:38;3.70;99.90
40434;DHT22;26146;51.114;5.654;2022-12-11T08:28:40;3.80;99.90
40434;DHT22;26146;51.114;5.654;2022-12-11T08:32:41;3.80;99.90
40434;DHT22;26146;51.114;5.654;2022-12-11T08:36:42;3.80;99.90
40434;DHT22;26146;51.114;5.654;2022-12-11T08:40:43;3.90;99.90
40434;DHT22;26146;51.114;5.654;2022-12-11T08:44:44;3.90;99.90
40434;DHT22;26146;51.114;5.654;2022-12-11T08:48:45;3.80;99.90
40434;DHT22;26146;51.114;5.654;2022-12-11T08:52:46;3.80;99.90
40434;DHT22;26146;51.114;5.654;2022-12-11T08:56:47;4.00;99.90
40434;DHT22;26146;51.114;5.654;2022-12-11T09:00:48;4.10;99.90
40434;DHT22;26146;51.114;5.654;2022-12-11T09:04:49;4.10;99.90
40434;DHT22;26146;51.114;5.654;2022-12-11T09:08:51;4.10;99.90
40434;DHT22;26146;51.114;5.654;2022-12-11T09:12:52;4.20;99.90
40434;DHT22;26146;51.114;5.654;2022-12-11T09:16:53;4.30;99.90
40434;DHT22;26146;51.114;5.654;2022-12-11T09:21:02;4.30;99.90
40434;DHT22;26146;51.114;5.654;2022-12-11T09:25:03;4.40;99.90
40434;DHT22;26146;51.114;5.654;2022-12-11T09:29:05;4.40;99.90
40434;DHT22;26146;51.114;5.654;2022-12-11T09:33:06;4.30;99.90
40434;DHT22;26146;51.114;5.654;2022-12-11T09:37:09;4.20;99.90
40434;DHT22;26146;51.114;5.654;2022-12-11T09:41:28;4.30;99.90
40434;DHT22;26146;51.114;5.654;2022-12-11T09:45:32;4.40;99.90
40434;DHT22;26146;51.114;5.654;2022-12-11T09:49:39;4.50;99.90
40434;DHT22;26146;51.114;5.654;2022-12-11T09:53:41;4.60;99.90
40434;DHT22;26146;51.114;5.654;2022-12-11T10:02:29;4.70;99.90
40434;DHT22;26146;51.114;5.654;2022-12-11T10:11:16;4.70;99.90
40434;DHT22;26146;51.114;5.654;2022-12-11T10:15:36;4.60;99.90
40434;DHT22;26146;51.114;5.654;2022-12-11T10:19:40;4.70;99.90
40434;DHT22;26146;51.114;5.654;2022-12-11T10:23:58;4.70;99.90
40434;DHT22;26146;51.114;5.654;2022-12-11T10:28:10;4.80;99.90
40434;DHT22;26146;51.114;5.654;2022-12-11T10:32:21;4.80;99.90
40434;DHT22;26146;51.114;5.654;2022-12-11T10:36:34;4.80;99.90
40434;DHT22;26146;51.114;5.654;2022-12-11T10:40:37;4.70;99.90
40434;DHT22;26146;51.114;5.654;2022-12-11T10:44:39;4.80;99.90
40434;DHT22;26146;51.114;5.654;2022-12-11T10:48:53;4.70;99.90
40434;DHT22;26146;51.114;5.654;2022-12-11T10:52:54;4.60;99.90
40434;DHT22;26146;51.114;5.654;2022-12-11T10:56:56;4.60;99.90
40434;DHT22;26146;51.114;5.654;2022-12-11T11:01:14;4.60;99.90
40434;DHT22;26146;51.114;5.654;2022-12-11T11:05:35;4.70;99.90
40434;DHT22;26146;51.114;5.654;2022-12-11T11:09:37;4.70;99.90
40434;DHT22;26146;51.114;5.654;2022-12-11T11:13:39;4.70;99.90
40434;DHT22;26146;51.114;5.654;2022-12-11T11:17:46;4.80;99.90
40434;DHT22;26146;51.114;5.654;2022-12-11T11:21:50;4.70;99.90
40434;DHT22;26146;51.114;5.654;2022-12-11T11:26:01;4.70;99.90
40434;DHT22;26146;51.114;5.654;2022-12-11T11:30:18;4.50;99.90
40434;DHT22;26146;51.114;5.654;2022-12-11T11:34:20;4.50;99.90
40434;DHT22;26146;51.114;5.654;2022-12-11T11:38:25;4.70;99.90
40434;DHT22;26146;51.114;5.654;2022-12-11T11:43:26;4.90;99.90
40434;DHT22;26146;51.114;5.654;2022-12-11T11:47:14;5.00;99.90
40434;DHT22;26146;51.114;5.654;2022-12-11T11:51:36;4.90;99.90
40434;DHT22;26146;51.114;5.654;2022-12-11T11:55:45;4.90;99.90
40434;DHT22;26146;51.114;5.654;2022-12-11T11:59:53;5.10;99.90
40434;DHT22;26146;51.114;5.654;2022-12-11T12:03:55;5.10;99.90
40434;DHT22;26146;51.114;5.654;2022-12-11T12:08:05;5.00;99.90
40434;DHT22;26146;51.114;5.654;2022-12-11T12:12:13;4.90;99.90
40434;DHT22;26146;51.114;5.654;2022-12-11T12:16:21;4.90;99.90
40434;DHT22;26146;51.114;5.654;2022-12-11T12:20:42;4.70;99.90
40434;DHT22;26146;51.114;5.654;2022-12-11T12:29:26;4.80;99.90
40434;DHT22;26146;51.114;5.654;2022-12-11T12:33:42;4.90;99.90
40434;DHT22;26146;51.114;5.654;2022-12-11T12:38:01;4.90;99.90
40434;DHT22;26146;51.114;5.654;2022-12-11T12:42:39;5.10;99.90
40434;DHT22;26146;51.114;5.654;2022-12-11T12:47:00;4.90;99.90
40434;DHT22;26146;51.114;5.654;2022-12-11T12:51:03;4.70;99.90
40434;DHT22;26146;51.114;5.654;2022-12-11T12:59:24;4.70;99.90
40434;DHT22;26146;51.114;5.654;2022-12-11T13:03:29;4.60;99.90
40434;DHT22;26146;51.114;5.654;2022-12-11T13:07:31;4.60;99.90
40434;DHT22;26146;51.114;5.654;2022-12-11T13:11:33;4.70;99.90
40434;DHT22;26146;51.114;5.654;2022-12-11T13:15:40;4.60;99.90
40434;DHT22;26146;51.114;5.654;2022-12-11T13:19:45;4.70;99.90
40434;DHT22;26146;51.114;5.654;2022-12-11T13:23:47;4.50;99.90
40434;DHT22;26146;51.114;5.654;2022-12-11T13:27:48;4.60;99.90
40434;DHT22;26146;51.114;5.654;2022-12-11T13:31:56;4.60;99.90
40434;DHT22;26146;51.114;5.654;2022-12-11T13:40:23;4.50;99.90
40434;DHT22;26146;51.114;5.654;2022-12-11T13:44:34;4.40;99.90
40434;DHT22;26146;51.114;5.654;2022-12-11T13:48:43;4.40;99.90
40434;DHT22;26146;51.114;5.654;2022-12-11T13:52:56;4.40;99.90
40434;DHT22;26146;51.114;5.654;2022-12-11T13:57:01;4.40;99.90
40434;DHT22;26146;51.114;5.654;2022-12-11T14:01:05;4.40;99.90
40434;DHT22;26146;51.114;5.654;2022-12-11T14:05:08;4.40;99.90
40434;DHT22;26146;51.114;5.654;2022-12-11T14:09:19;4.30;99.90
40434;DHT22;26146;51.114;5.654;2022-12-11T14:13:30;4.30;99.90
40434;DHT22;26146;51.114;5.654;2022-12-11T14:17:33;4.40;99.90
40434;DHT22;26146;51.114;5.654;2022-12-11T14:21:34;4.50;99.90
40434;DHT22;26146;51.114;5.654;2022-12-11T14:25:36;4.60;99.90
40434;DHT22;26146;51.114;5.654;2022-12-11T14:29:37;4.60;99.90
40434;DHT22;26146;51.114;5.654;2022-12-11T14:33:44;4.40;99.90
40434;DHT22;26146;51.114;5.654;2022-12-11T14:37:47;4.30;99.90
40434;DHT22;26146;51.114;5.654;2022-12-11T14:45:56;4.40;99.90
40434;DHT22;26146;51.114;5.654;2022-12-11T14:54:37;4.10;99.90
40434;DHT22;26146;51.114;5.654;2022-12-11T14:58:47;4.00;99.90
40434;DHT22;26146;51.114;5.654;2022-12-11T15:03:02;3.90;99.90
40434;DHT22;26146;51.114;5.654;2022-12-11T15:07:18;3.90;99.90
40434;DHT22;26146;51.114;5.654;2022-12-11T15:11:23;3.80;99.90
40434;DHT22;26146;51.114;5.654;2022-12-11T15:15:31;4.00;99.90
40434;DHT22;26146;51.114;5.654;2022-12-11T15:19:33;3.90;99.90
40434;DHT22;26146;51.114;5.654;2022-12-11T15:23:53;3.90;99.90
40434;DHT22;26146;51.114;5.654;2022-12-11T15:27:59;3.80;99.90
40434;DHT22;26146;51.114;5.654;2022-12-11T15:40:33;3.30;99.90
40434;DHT22;26146;51.114;5.654;2022-12-11T15:44:34;3.40;99.90
40434;DHT22;26146;51.114;5.654;2022-12-11T15:48:35;3.30;99.90
40434;DHT22;26146;51.114;5.654;2022-12-11T15:52:36;3.30;99.90
40434;DHT22;26146;51.114;5.654;2022-12-11T15:56:37;3.20;99.90
40434;DHT22;26146;51.114;5.654;2022-12-11T16:00:39;3.20;99.90
40434;DHT22;26146;51.114;5.654;2022-12-11T16:04:40;3.30;99.90
40434;DHT22;26146;51.114;5.654;2022-12-11T16:08:41;3.30;99.90
40434;DHT22;26146;51.114;5.654;2022-12-11T16:12:43;3.30;99.90
40434;DHT22;26146;51.114;5.654;2022-12-11T16:16:44;3.20;99.90
40434;DHT22;26146;51.114;5.654;2022-12-11T16:20:45;3.30;99.90
40434;DHT22;26146;51.114;5.654;2022-12-11T16:24:46;3.40;99.90
40434;DHT22;26146;51.114;5.654;2022-12-11T16:28:47;3.50;99.90
40434;DHT22;26146;51.114;5.654;2022-12-11T16:32:51;3.50;99.90
40434;DHT22;26146;51.114;5.654;2022-12-11T16:36:52;3.50;99.90
40434;DHT22;26146;51.114;5.654;2022-12-11T16:41:00;3.60;99.90
40434;DHT22;26146;51.114;5.654;2022-12-11T16:45:07;3.30;99.90
40434;DHT22;26146;51.114;5.654;2022-12-11T16:49:10;3.40;99.90
40434;DHT22;26146;51.114;5.654;2022-12-11T16:53:11;3.40;99.90
40434;DHT22;26146;51.114;5.654;2022-12-11T16:57:14;3.30;99.90
40434;DHT22;26146;51.114;5.654;2022-12-11T17:01:15;3.40;99.90
40434;DHT22;26146;51.114;5.654;2022-12-11T17:05:16;3.40;99.90
40434;DHT22;26146;51.114;5.654;2022-12-11T17:09:17;3.30;99.90
40434;DHT22;26146;51.114;5.654;2022-12-11T17:13:18;3.50;99.90
40434;DHT22;26146;51.114;5.654;2022-12-11T17:17:19;3.60;99.90
40434;DHT22;26146;51.114;5.654;2022-12-11T17:21:21;3.50;99.90
40434;DHT22;26146;51.114;5.654;2022-12-11T17:25:22;3.40;99.90
40434;DHT22;26146;51.114;5.654;2022-12-11T17:29:23;3.50;99.90
40434;DHT22;26146;51.114;5.654;2022-12-11T17:33:24;3.40;99.90
40434;DHT22;26146;51.114;5.654;2022-12-11T17:37:25;3.40;99.90
40434;DHT22;26146;51.114;5.654;2022-12-11T17:41:26;3.70;99.90
40434;DHT22;26146;51.114;5.654;2022-12-11T17:45:29;3.40;99.90
40434;DHT22;26146;51.114;5.654;2022-12-11T17:49:30;3.30;99.90
40434;DHT22;26146;51.114;5.654;2022-12-11T17:53:32;3.30;99.90
40434;DHT22;26146;51.114;5.654;2022-12-11T17:57:38;3.20;99.90
40434;DHT22;26146;51.114;5.654;2022-12-11T18:01:39;3.20;99.90
40434;DHT22;26146;51.114;5.654;2022-12-11T18:05:41;3.20;99.90
40434;DHT22;26146;51.114;5.654;2022-12-11T18:09:43;3.10;99.90
40434;DHT22;26146;51.114;5.654;2022-12-11T18:13:44;3.00;99.90
40434;DHT22;26146;51.114;5.654;2022-12-11T18:17:45;3.00;99.90
40434;DHT22;26146;51.114;5.654;2022-12-11T18:21:46;3.00;99.90
40434;DHT22;26146;51.114;5.654;2022-12-11T18:25:48;2.80;99.90
40434;DHT22;26146;51.114;5.654;2022-12-11T18:29:49;2.70;99.90
40434;DHT22;26146;51.114;5.654;2022-12-11T18:33:51;2.60;99.90
40434;DHT22;26146;51.114;5.654;2022-12-11T18:37:52;2.50;99.90
40434;DHT22;26146;51.114;5.654;2022-12-11T18:41:53;2.40;99.90
40434;DHT22;26146;51.114;5.654;2022-12-11T18:45:53;2.30;99.90
40434;DHT22;26146;51.114;5.654;2022-12-11T18:49:56;2.10;99.90
40434;DHT22;26146;51.114;5.654;2022-12-11T18:53:57;2.00;99.90
40434;DHT22;26146;51.114;5.654;2022-12-11T18:57:58;2.00;99.90
40434;DHT22;26146;51.114;5.654;2022-12-11T19:01:59;2.00;99.90
40434;DHT22;26146;51.114;5.654;2022-12-11T19:06:12;1.90;99.90
40434;DHT22;26146;51.114;5.654;2022-12-11T19:10:13;1.60;99.90
40434;DHT22;26146;51.114;5.654;2022-12-11T19:14:16;1.50;99.90
40434;DHT22;26146;51.114;5.654;2022-12-11T19:18:17;1.60;99.90
40434;DHT22;26146;51.114;5.654;2022-12-11T19:22:18;1.50;99.90
40434;DHT22;26146;51.114;5.654;2022-12-11T19:26:21;1.50;99.90
40434;DHT22;26146;51.114;5.654;2022-12-11T19:30:25;1.40;99.90
40434;DHT22;26146;51.114;5.654;2022-12-11T19:34:27;1.40;99.90
40434;DHT22;26146;51.114;5.654;2022-12-11T19:38:28;1.40;99.90
40434;DHT22;26146;51.114;5.654;2022-12-11T19:42:29;1.20;99.90
40434;DHT22;26146;51.114;5.654;2022-12-11T19:46:30;1.20;99.90
40434;DHT22;26146;51.114;5.654;2022-12-11T19:50:34;1.20;99.90
40434;DHT22;26146;51.114;5.654;2022-12-11T19:54:35;1.10;99.90
40434;DHT22;26146;51.114;5.654;2022-12-11T19:58:39;1.00;99.90
40434;DHT22;26146;51.114;5.654;2022-12-11T20:02:40;1.10;99.90
40434;DHT22;26146;51.114;5.654;2022-12-11T20:06:42;1.10;99.90
40434;DHT22;26146;51.114;5.654;2022-12-11T20:10:44;0.90;99.90
40434;DHT22;26146;51.114;5.654;2022-12-11T20:14:44;0.80;99.90
40434;DHT22;26146;51.114;5.654;2022-12-11T20:18:50;0.80;99.90
40434;DHT22;26146;51.114;5.654;2022-12-11T20:22:53;0.80;99.90
40434;DHT22;26146;51.114;5.654;2022-12-11T20:26:55;0.90;99.90
40434;DHT22;26146;51.114;5.654;2022-12-11T20:31:10;0.80;99.90
40434;DHT22;26146;51.114;5.654;2022-12-11T20:35:11;0.70;99.90
40434;DHT22;26146;51.114;5.654;2022-12-11T20:39:13;0.60;99.90
40434;DHT22;26146;51.114;5.654;2022-12-11T20:43:14;0.70;99.90
40434;DHT22;26146;51.114;5.654;2022-12-11T20:47:17;0.80;99.90
40434;DHT22;26146;51.114;5.654;2022-12-11T20:51:21;0.70;99.90
40434;DHT22;26146;51.114;5.654;2022-12-11T20:55:22;0.60;99.90
40434;DHT22;26146;51.114;5.654;2022-12-11T20:59:26;0.50;99.90
40434;DHT22;26146;51.114;5.654;2022-12-11T21:03:27;0.50;99.90
40434;DHT22;26146;51.114;5.654;2022-12-11T21:07:28;0.50;99.90
40434;DHT22;26146;51.114;5.654;2022-12-11T21:11:31;0.50;99.90
40434;DHT22;26146;51.114;5.654;2022-12-11T21:15:37;0.40;99.90
40434;DHT22;26146;51.114;5.654;2022-12-11T21:19:38;0.40;99.90
40434;DHT22;26146;51.114;5.654;2022-12-11T21:23:39;0.30;99.90
40434;DHT22;26146;51.114;5.654;2022-12-11T21:27:40;0.20;99.90
40434;DHT22;26146;51.114;5.654;2022-12-11T21:31:41;0.10;99.90
40434;DHT22;26146;51.114;5.654;2022-12-11T21:35:43;0.20;99.90
40434;DHT22;26146;51.114;5.654;2022-12-11T21:39:43;0.20;99.90
40434;DHT22;26146;51.114;5.654;2022-12-11T21:43:46;0.20;99.90
40434;DHT22;26146;51.114;5.654;2022-12-11T21:47:47;0.00;99.90
40434;DHT22;26146;51.114;5.654;2022-12-11T21:51:48;0.10;99.90
40434;DHT22;26146;51.114;5.654;2022-12-11T21:55:49;0.20;99.90
40434;DHT22;26146;51.114;5.654;2022-12-11T21:59:52;0.10;99.90
40434;DHT22;26146;51.114;5.654;2022-12-11T22:03:53;-0.10;99.90
40434;DHT22;26146;51.114;5.654;2022-12-11T22:07:54;-0.10;99.90
40434;DHT22;26146;51.114;5.654;2022-12-11T22:11:55;-0.10;99.90
40434;DHT22;26146;51.114;5.654;2022-12-11T22:15:56;0.00;99.90
40434;DHT22;26146;51.114;5.654;2022-12-11T22:19:59;0.00;99.90
40434;DHT22;26146;51.114;5.654;2022-12-11T22:24:01;-0.20;99.90
40434;DHT22;26146;51.114;5.654;2022-12-11T22:28:02;-0.20;99.90
40434;DHT22;26146;51.114;5.654;2022-12-11T22:32:04;-0.40;99.90
40434;DHT22;26146;51.114;5.654;2022-12-11T22:36:05;-0.50;99.90
40434;DHT22;26146;51.114;5.654;2022-12-11T22:40:06;-0.60;99.90
40434;DHT22;26146;51.114;5.654;2022-12-11T22:44:18;-0.60;99.90
40434;DHT22;26146;51.114;5.654;2022-12-11T22:48:19;-0.60;99.90
40434;DHT22;26146;51.114;5.654;2022-12-11T22:52:20;-0.50;99.90
40434;DHT22;26146;51.114;5.654;2022-12-11T22:56:21;-0.40;99.90
40434;DHT22;26146;51.114;5.654;2022-12-11T23:00:22;-0.30;99.90
40434;DHT22;26146;51.114;5.654;2022-12-11T23:04:23;-0.50;99.90
40434;DHT22;26146;51.114;5.654;2022-12-11T23:08:26;-0.50;99.90
40434;DHT22;26146;51.114;5.654;2022-12-11T23:12:28;-0.70;99.90
40434;DHT22;26146;51.114;5.654;2022-12-11T23:16:29;-0.60;99.90
40434;DHT22;26146;51.114;5.654;2022-12-11T23:20:30;-0.70;99.90
40434;DHT22;26146;51.114;5.654;2022-12-11T23:24:31;-0.70;99.90
40434;DHT22;26146;51.114;5.654;2022-12-11T23:28:31;-0.80;99.90
40434;DHT22;26146;51.114;5.654;2022-12-11T23:32:32;-0.70;99.90
40434;DHT22;26146;51.114;5.654;2022-12-11T23:36:33;-0.70;99.90
40434;DHT22;26146;51.114;5.654;2022-12-11T23:40:35;-0.70;99.90
40434;DHT22;26146;51.114;5.654;2022-12-11T23:44:36;-0.60;99.90
40434;DHT22;26146;51.114;5.654;2022-12-11T23:48:36;-0.70;99.90
40434;DHT22;26146;51.114;5.654;2022-12-11T23:52:37;-0.80;99.90
40434;DHT22;26146;51.114;5.654;2022-12-11T23:56:38;-0.90;99.90
